Time;durP1;ratioP1;P1;durP2;ratioP2;P2;SDS_P1;SDS_P2;PMS_P1;PMS_P2;Temp;Humidity;BMP_temperature;BMP_pressure;BME280_temperature;BME280_humidity;BME280_pressure;Samples;Min_cycle;Max_cycle;Signal;HPM_P1;HPM_P2
2023/03/20 00:01:55;;;;;;;87.35;34.67;;;;;;;-145.01;100.00;64805.59;5079471;28;20079;-60
2023/03/20 00:04:21;;;;;;;94.25;34.15;;;;;;;-145.01;100.00;64805.59;5065036;28;20062;-61
2023/03/20 00:06:47;;;;;;;92.03;35.88;;;;;;;-145.01;100.00;64805.59;5075105;28;20024;-58
2023/03/20 00:09:12;;;;;;;100.93;36.75;;;;;;;-145.01;100.00;64805.59;5079805;28;20044;-61
2023/03/20 00:11:48;;;;;;;101.03;37.63;;;;;;;-145.01;100.00;64805.59;5074735;28;20019;-61
2023/03/20 00:14:15;;;;;;;97.65;35.55;;;;;;;-145.01;100.00;64805.59;5064672;28;20094;-60
2023/03/20 00:16:42;;;;;;;91.85;36.13;;;;;;;-145.01;100.00;64805.59;5075887;28;20032;-61
2023/03/20 00:19:19;;;;;;;94.90;36.13;;;;;;;-145.01;100.00;64805.59;5060614;28;20044;-60
2023/03/20 00:21:46;;;;;;;97.05;35.35;;;;;;;-145.01;100.00;64805.59;5058180;28;20402;-60
2023/03/20 00:24:11;;;;;;;89.80;34.15;;;;;;;-145.01;100.00;64805.59;5079266;28;20028;-61
2023/03/20 00:26:38;;;;;;;97.90;36.63;;;;;;;-145.01;100.00;64805.59;5072278;28;20120;-59
2023/03/20 00:29:03;;;;;;;89.53;35.35;;;;;;;-145.01;100.00;64805.59;5061727;28;20036;-58
2023/03/20 00:31:30;;;;;;;96.60;36.08;;;;;;;-145.01;100.00;64805.59;5060420;28;20024;-61
2023/03/20 00:33:58;;;;;;;97.95;38.17;;;;;;;-145.01;100.00;64805.59;5062178;28;20032;-60
2023/03/20 00:36:23;;;;;;;109.88;39.95;;;;;;;-145.01;100.00;64805.59;5084749;28;20036;-61
2023/03/20 00:38:50;;;;;;;103.35;40.72;;;;;;;-145.01;100.00;64805.59;5062888;28;20047;-61
2023/03/20 00:41:25;;;;;;;108.88;42.42;;;;;;;-145.01;100.00;64805.59;5086961;28;20329;-61
2023/03/20 00:43:55;;;;;;;110.70;40.47;;;;;;;-145.01;100.00;64805.59;5060372;28;20379;-60
2023/03/20 00:46:21;;;;;;;99.35;37.22;;;;;;;-145.01;100.00;64805.59;5077643;28;20011;-61
2023/03/20 00:48:46;;;;;;;115.43;41.28;;;;;;;-145.01;100.00;64805.59;5080297;28;20505;-61
2023/03/20 00:51:12;;;;;;;106.78;42.13;;;;;;;-145.01;100.00;64805.59;5051521;28;20070;-61
2023/03/20 00:53:37;;;;;;;119.88;46.22;;;;;;;-145.01;100.00;64805.59;5081337;28;20519;-61
2023/03/20 00:56:03;;;;;;;121.03;43.60;;;;;;;-145.01;100.00;64805.59;5075663;28;20058;-60
2023/03/20 00:58:29;;;;;;;128.75;44.72;;;;;;;-145.01;100.00;64805.59;5086080;28;20085;-61
2023/03/20 01:00:55;;;;;;;124.82;43.70;;;;;;;-145.01;100.00;64805.59;5084465;28;20032;-59
2023/03/20 01:03:21;;;;;;;127.90;44.78;;;;;;;-145.01;100.00;64805.59;5085116;28;20023;-61
2023/03/20 01:05:47;;;;;;;128.88;45.67;;;;;;;-145.01;100.00;64805.59;5088178;28;20020;-60
2023/03/20 01:08:21;;;;;;;138.27;46.17;;;;;;;-145.01;100.00;64805.59;5070228;28;20158;-60
2023/03/20 01:10:48;;;;;;;137.38;45.92;;;;;;;-145.01;100.00;64805.59;5088370;28;20384;-60
2023/03/20 01:13:27;;;;;;;145.30;46.45;;;;;;;-145.01;100.00;64805.59;5041105;28;20051;-60
2023/03/20 01:15:54;;;;;;;149.00;51.17;;;;;;;-145.01;100.00;64805.59;5065547;28;20485;-60
2023/03/20 01:18:20;;;;;;;147.20;48.53;;;;;;;-145.01;100.00;64805.59;5061225;28;20436;-59
2023/03/20 01:20:46;;;;;;;150.18;47.35;;;;;;;-145.01;100.00;64805.59;5075883;28;20100;-60
2023/03/20 01:23:11;;;;;;;163.48;51.70;;;;;;;-145.01;100.00;64805.59;5087667;28;20071;-60
2023/03/20 01:25:37;;;;;;;161.85;48.67;;;;;;;-145.01;100.00;64805.59;5067832;28;20028;-60
2023/03/20 01:28:03;;;;;;;158.13;47.65;;;;;;;-145.01;100.00;64805.59;5081738;28;20024;-60
2023/03/20 01:30:30;;;;;;;154.27;45.85;;;;;;;-145.01;100.00;64805.59;5067448;28;20071;-60
2023/03/20 01:32:55;;;;;;;164.25;49.28;;;;;;;-145.01;100.00;64805.59;5083443;28;20040;-60
2023/03/20 01:35:22;;;;;;;153.60;46.72;;;;;;;-145.01;100.00;64805.59;5076680;28;20020;-60
2023/03/20 01:37:48;;;;;;;163.45;47.75;;;;;;;-145.01;100.00;64805.59;5080092;28;20024;-60
2023/03/20 01:40:26;;;;;;;150.40;48.20;;;;;;;-145.01;100.00;64805.59;5077415;28;20035;-59
2023/03/20 01:42:52;;;;;;;160.80;49.63;;;;;;;-145.01;100.00;64805.59;5077554;28;20128;-60
2023/03/20 01:45:21;;;;;;;139.45;43.72;;;;;;;-145.01;100.00;64805.59;5063323;28;20335;-60
2023/03/20 01:47:46;;;;;;;155.80;46.90;;;;;;;-145.01;100.00;64805.59;5062019;28;20383;-60
2023/03/20 01:50:25;;;;;;;149.52;45.92;;;;;;;-145.01;100.00;64805.59;5059110;28;20032;-60
2023/03/20 01:53:06;;;;;;;151.52;47.03;;;;;;;-145.01;100.00;64805.59;5081956;28;20036;-60
2023/03/20 01:55:32;;;;;;;148.55;46.88;;;;;;;-145.01;100.00;64805.59;5067174;28;20028;-60
2023/03/20 01:57:59;;;;;;;153.15;47.63;;;;;;;-145.01;100.00;64805.59;5084700;28;20036;-60
2023/03/20 02:00:25;;;;;;;154.63;46.25;;;;;;;-145.01;100.00;64805.59;5060253;28;20485;-61
2023/03/20 02:02:50;;;;;;;145.77;46.10;;;;;;;-145.01;100.00;64805.59;5086209;28;20024;-60
2023/03/20 02:05:17;;;;;;;130.77;44.67;;;;;;;-145.01;100.00;64805.59;5068647;28;20036;-60
2023/03/20 02:07:42;;;;;;;139.35;44.13;;;;;;;-145.01;100.00;64805.59;5057733;28;20021;-60
2023/03/20 02:10:12;;;;;;;142.63;43.85;;;;;;;-145.01;100.00;64805.59;5061248;28;20130;-60
2023/03/20 02:12:38;;;;;;;140.32;43.13;;;;;;;-145.01;100.00;64805.59;5059474;28;20084;-60
2023/03/20 02:15:05;;;;;;;137.40;43.70;;;;;;;-145.01;100.00;64805.59;5048133;28;20048;-59
2023/03/20 02:17:30;;;;;;;140.63;44.63;;;;;;;-145.01;100.00;64805.59;5085121;28;20491;-59
2023/03/20 02:20:36;;;;;;;134.05;41.85;;;;;;;-145.01;100.00;64805.59;5042942;28;20043;-59
2023/03/20 02:23:16;;;;;;;135.50;43.72;;;;;;;-145.01;100.00;64805.59;5054272;28;20040;-60
2023/03/20 02:26:11;;;;;;;141.52;43.22;;;;;;;-145.01;100.00;64805.59;5061770;28;20474;-59
2023/03/20 02:29:05;;;;;;;135.00;41.22;;;;;;;-145.01;100.00;64805.59;5082120;28;20538;-58
2023/03/20 02:32:04;;;;;;;132.57;44.00;;;;;;;-145.01;100.00;64805.59;5084033;28;20145;-58
2023/03/20 02:35:02;;;;;;;143.15;43.38;;;;;;;-145.01;100.00;64805.59;5067959;28;20035;-59
2023/03/20 02:37:58;;;;;;;130.07;42.60;;;;;;;-145.01;100.00;64805.59;5072601;28;20567;-59
2023/03/20 02:40:35;;;;;;;130.30;43.80;;;;;;;-145.01;100.00;64805.59;5084154;28;20057;-59
2023/03/20 02:43:24;;;;;;;132.65;43.88;;;;;;;-145.01;100.00;64805.59;5050717;28;20032;-59
2023/03/20 02:45:54;;;;;;;153.38;46.35;;;;;;;-145.01;100.00;64805.59;5075997;28;20039;-59
2023/03/20 02:48:38;;;;;;;134.45;42.72;;;;;;;-145.01;100.00;64805.59;5079254;28;20473;-59
2023/03/20 02:51:07;;;;;;;133.40;44.47;;;;;;;-145.01;100.00;64805.59;5075480;28;20044;-59
2023/03/20 02:54:10;;;;;;;129.13;43.47;;;;;;;-145.01;100.00;64805.59;5080620;28;20386;-60
2023/03/20 02:56:54;;;;;;;124.28;41.95;;;;;;;-145.01;100.00;64805.59;4998165;28;20117;-60
2023/03/20 02:59:45;;;;;;;122.97;42.22;;;;;;;-145.01;100.00;64805.59;5076358;28;20043;-60
2023/03/20 03:02:25;;;;;;;128.60;38.33;;;;;;;-145.01;100.00;64805.59;5054136;28;20055;-58
2023/03/20 03:04:54;;;;;;;138.18;42.35;;;;;;;-145.01;100.00;64805.59;5075039;28;20024;-61
2023/03/20 03:07:21;;;;;;;133.40;42.53;;;;;;;-145.01;100.00;64805.59;5057932;28;20019;-60
2023/03/20 03:09:54;;;;;;;123.78;41.70;;;;;;;-145.01;100.00;64805.59;5060476;28;20437;-60
2023/03/20 03:12:21;;;;;;;129.70;42.20;;;;;;;-145.01;100.00;64805.59;5064815;28;20021;-60
2023/03/20 03:14:55;;;;;;;129.43;42.13;;;;;;;-145.01;100.00;64805.59;5039241;28;20041;-60
2023/03/20 03:17:22;;;;;;;137.30;43.50;;;;;;;-145.01;100.00;64805.59;5066577;28;20119;-60
2023/03/20 03:19:52;;;;;;;127.80;43.78;;;;;;;-145.01;100.00;64805.59;5075392;28;20024;-60
2023/03/20 03:22:18;;;;;;;130.38;41.30;;;;;;;-145.01;100.00;64805.59;5055920;28;20036;-60
2023/03/20 03:24:45;;;;;;;132.90;42.08;;;;;;;-145.01;100.00;64805.59;5044592;28;20043;-60
2023/03/20 03:27:35;;;;;;;128.45;40.53;;;;;;;-145.01;100.00;64805.59;5080016;28;20073;-60
2023/03/20 03:30:06;;;;;;;126.15;40.15;;;;;;;-145.01;100.00;64805.59;5081463;28;20055;-60
2023/03/20 03:32:39;;;;;;;128.48;42.28;;;;;;;-145.01;100.00;64805.59;5041378;28;20027;-60
2023/03/20 03:35:05;;;;;;;121.35;39.80;;;;;;;-145.01;100.00;64805.59;5064759;28;20031;-60
2023/03/20 03:37:56;;;;;;;123.97;39.47;;;;;;;-145.01;100.00;64805.59;5085907;28;20019;-60
2023/03/20 03:40:34;;;;;;;133.63;40.13;;;;;;;-145.01;100.00;64805.59;5071875;28;20048;-59
2023/03/20 03:43:41;;;;;;;128.55;38.95;;;;;;;-145.01;100.00;64805.59;5084736;28;20032;-60
2023/03/20 03:46:23;;;;;;;128.32;40.75;;;;;;;-145.01;100.00;64805.59;5062193;28;20078;-60
2023/03/20 03:48:51;;;;;;;130.73;37.33;;;;;;;-145.01;100.00;64805.59;5064600;28;20344;-60
2023/03/20 03:51:18;;;;;;;146.02;39.72;;;;;;;-145.01;100.00;64805.59;5062145;28;20048;-60
2023/03/20 03:53:47;;;;;;;132.88;40.17;;;;;;;-145.01;100.00;64805.59;5091706;28;20704;-60
2023/03/20 03:56:13;;;;;;;130.07;38.33;;;;;;;-145.01;100.00;64805.59;5060924;28;20028;-60
2023/03/20 03:58:47;;;;;;;115.25;38.35;;;;;;;-145.01;100.00;64805.59;5061839;28;20031;-60
2023/03/20 04:01:13;;;;;;;136.95;39.25;;;;;;;-145.01;100.00;64805.59;5049399;28;20523;-60
2023/03/20 04:03:40;;;;;;;139.70;40.55;;;;;;;-145.01;100.00;64805.59;5062950;28;20028;-60
2023/03/20 04:06:07;;;;;;;137.95;41.13;;;;;;;-145.01;100.00;64805.59;5033509;28;20028;-60
2023/03/20 04:08:33;;;;;;;126.45;38.80;;;;;;;-145.01;100.00;64805.59;5043037;28;20078;-60
2023/03/20 04:10:58;;;;;;;126.05;37.33;;;;;;;-145.01;100.00;64805.59;5091698;28;20969;-60
2023/03/20 04:13:26;;;;;;;139.05;38.55;;;;;;;-145.01;100.00;64805.59;5094280;28;20320;-59
2023/03/20 04:15:51;;;;;;;147.23;40.88;;;;;;;-145.01;100.00;64805.59;5075155;28;20409;-60
2023/03/20 04:18:17;;;;;;;136.38;39.70;;;;;;;-145.01;100.00;64805.59;5065318;28;20021;-60
2023/03/20 04:20:44;;;;;;;132.93;36.65;;;;;;;-145.01;100.00;64805.59;5089390;28;20390;-59
2023/03/20 04:23:09;;;;;;;147.05;42.42;;;;;;;-145.01;100.00;64805.59;5081588;28;20059;-60
2023/03/20 04:25:35;;;;;;;131.23;40.05;;;;;;;-145.01;100.00;64805.59;5089090;28;20027;-60
2023/03/20 04:28:00;;;;;;;132.00;38.95;;;;;;;-145.01;100.00;64805.59;5093298;28;20035;-60
2023/03/20 04:30:26;;;;;;;151.02;42.95;;;;;;;-145.01;100.00;64805.59;5087813;28;20024;-60
2023/03/20 04:32:51;;;;;;;134.85;42.95;;;;;;;-145.01;100.00;64805.59;5062211;28;20036;-60
2023/03/20 04:35:17;;;;;;;129.10;41.08;;;;;;;-145.01;100.00;64805.59;5060207;28;20035;-59
2023/03/20 04:37:42;;;;;;;135.43;38.80;;;;;;;-145.01;100.00;64805.59;5096637;28;20051;-60
2023/03/20 04:40:09;;;;;;;136.45;40.92;;;;;;;-145.01;100.00;64805.59;5085918;28;20024;-60
2023/03/20 04:42:34;;;;;;;136.90;40.22;;;;;;;-145.01;100.00;64805.59;5081632;28;20497;-60
2023/03/20 04:45:00;;;;;;;143.60;40.95;;;;;;;-145.01;100.00;64805.59;5081782;28;20051;-60
2023/03/20 04:47:25;;;;;;;141.52;42.65;;;;;;;-145.01;100.00;64805.59;5082424;28;20034;-60
2023/03/20 04:49:51;;;;;;;138.13;43.40;;;;;;;-145.01;100.00;64805.59;5083846;28;20039;-60
2023/03/20 04:52:16;;;;;;;148.32;42.15;;;;;;;-145.01;100.00;64805.59;5083022;28;20033;-60
2023/03/20 04:54:41;;;;;;;149.20;41.40;;;;;;;-145.01;100.00;64805.59;5076016;28;20017;-60
2023/03/20 04:57:07;;;;;;;152.75;43.45;;;;;;;-145.01;100.00;64805.59;5082023;28;20412;-60
2023/03/20 04:59:33;;;;;;;135.10;41.55;;;;;;;-145.01;100.00;64805.59;5060777;28;20445;-61
2023/03/20 05:01:58;;;;;;;145.45;40.85;;;;;;;-145.01;100.00;64805.59;5078638;28;20032;-61
2023/03/20 05:04:24;;;;;;;135.55;39.88;;;;;;;-145.01;100.00;64805.59;5082005;28;20020;-61
2023/03/20 05:06:49;;;;;;;130.32;38.78;;;;;;;-145.01;100.00;64805.59;5060293;28;20032;-60
2023/03/20 05:09:15;;;;;;;135.13;38.58;;;;;;;-145.01;100.00;64805.59;5089749;28;20074;-60
2023/03/20 05:11:41;;;;;;;153.50;44.72;;;;;;;-145.01;100.00;64805.59;5089103;28;20035;-61
2023/03/20 05:14:07;;;;;;;136.02;40.20;;;;;;;-145.01;100.00;64805.59;5060737;28;20075;-60
2023/03/20 05:16:32;;;;;;;130.63;38.28;;;;;;;-145.01;100.00;64805.59;5058935;28;20020;-59
2023/03/20 05:18:58;;;;;;;132.00;40.75;;;;;;;-145.01;100.00;64805.59;5086596;28;20124;-59
2023/03/20 05:21:23;;;;;;;134.30;38.10;;;;;;;-145.01;100.00;64805.59;5067280;28;20028;-59
2023/03/20 05:23:49;;;;;;;125.78;38.50;;;;;;;-145.01;100.00;64805.59;5087159;28;20040;-59
2023/03/20 05:26:14;;;;;;;113.72;34.72;;;;;;;-145.01;100.00;64805.59;5079303;28;20043;-59
2023/03/20 05:28:40;;;;;;;113.38;34.75;;;;;;;-145.01;100.00;64805.59;5090398;28;20094;-59
2023/03/20 05:31:05;;;;;;;110.65;35.75;;;;;;;-145.01;100.00;64805.59;5078329;28;20097;-58
2023/03/20 05:33:31;;;;;;;114.53;37.95;;;;;;;-145.01;100.00;64805.59;5083220;28;20036;-59
2023/03/20 05:35:56;;;;;;;108.35;35.20;;;;;;;-145.01;100.00;64805.59;5069988;28;20028;-59
2023/03/20 05:38:22;;;;;;;114.18;36.78;;;;;;;-145.01;100.00;64805.59;5081718;28;20427;-59
2023/03/20 05:40:55;;;;;;;114.57;36.88;;;;;;;-145.01;100.00;64805.59;5057730;28;20031;-58
2023/03/20 05:43:20;;;;;;;120.70;35.92;;;;;;;-145.01;100.00;64805.59;5082506;28;20473;-59
2023/03/20 05:45:46;;;;;;;107.85;36.17;;;;;;;-145.01;100.00;64805.59;5080502;28;20081;-59
2023/03/20 05:48:11;;;;;;;116.03;36.75;;;;;;;-145.01;100.00;64805.59;5084775;28;20043;-59
2023/03/20 05:50:37;;;;;;;113.65;35.47;;;;;;;-145.01;100.00;64805.59;5078730;28;20025;-59
2023/03/20 05:53:02;;;;;;;104.70;35.75;;;;;;;-145.01;100.00;64805.59;5084578;28;20029;-59
2023/03/20 05:55:27;;;;;;;104.25;34.45;;;;;;;-145.01;100.00;64805.59;5089350;28;20377;-59
2023/03/20 05:57:53;;;;;;;100.68;34.47;;;;;;;-145.01;100.00;64805.59;5076042;28;20492;-59
2023/03/20 06:00:19;;;;;;;111.43;33.22;;;;;;;-145.01;100.00;64805.59;5091642;28;20035;-59
2023/03/20 06:02:44;;;;;;;117.13;36.65;;;;;;;-145.01;100.00;64805.59;5077328;28;20055;-60
2023/03/20 06:05:10;;;;;;;107.05;35.90;;;;;;;-145.01;100.00;64805.59;5086270;28;20042;-60
2023/03/20 06:07:35;;;;;;;127.47;37.00;;;;;;;-145.01;100.00;64805.59;5083842;28;20309;-59
2023/03/20 06:10:01;;;;;;;98.07;32.92;;;;;;;-145.01;100.00;64805.59;5078783;28;20028;-60
2023/03/20 06:12:26;;;;;;;111.57;38.88;;;;;;;-145.01;100.00;64805.59;5071523;28;20025;-60
2023/03/20 06:14:52;;;;;;;104.32;35.95;;;;;;;-145.01;100.00;64805.59;5078812;28;20509;-59
2023/03/20 06:17:18;;;;;;;113.20;34.17;;;;;;;-145.01;100.00;64805.59;5062755;28;20031;-59
2023/03/20 06:19:43;;;;;;;110.35;36.05;;;;;;;-145.01;100.00;64805.59;5083245;28;20028;-59
2023/03/20 06:22:08;;;;;;;97.47;35.72;;;;;;;-145.01;100.00;64805.59;5087452;28;20033;-60
2023/03/20 06:24:34;;;;;;;98.13;33.25;;;;;;;-145.01;100.00;64805.59;5082834;28;20039;-59
2023/03/20 06:27:00;;;;;;;97.57;36.53;;;;;;;-145.01;100.00;64805.59;5081913;28;20029;-60
2023/03/20 06:29:25;;;;;;;105.63;36.10;;;;;;;-145.01;100.00;64805.59;5076757;28;20106;-59
2023/03/20 06:31:51;;;;;;;103.07;34.28;;;;;;;-145.01;100.00;64805.59;5092686;28;20028;-59
2023/03/20 06:34:16;;;;;;;114.13;37.88;;;;;;;-145.01;100.00;64805.59;5084909;28;20029;-59
2023/03/20 06:36:42;;;;;;;111.32;35.35;;;;;;;-145.01;100.00;64805.59;5089275;28;20035;-59
2023/03/20 06:39:07;;;;;;;108.82;34.88;;;;;;;-145.01;100.00;64805.59;5087585;28;20081;-60
2023/03/20 06:41:33;;;;;;;93.75;33.83;;;;;;;-145.01;100.00;64805.59;5086138;28;20034;-59
2023/03/20 06:43:58;;;;;;;114.95;37.78;;;;;;;-145.01;100.00;64805.59;5082154;28;20040;-59
2023/03/20 06:46:24;;;;;;;127.78;39.00;;;;;;;-145.01;100.00;64805.59;5077968;28;20016;-59
2023/03/20 06:48:50;;;;;;;116.82;38.72;;;;;;;-145.01;100.00;64805.59;5078119;28;20502;-59
2023/03/20 06:51:15;;;;;;;116.88;37.47;;;;;;;-145.01;100.00;64805.59;5080900;28;20032;-59
2023/03/20 06:53:42;;;;;;;126.38;38.65;;;;;;;-145.01;100.00;64805.59;5087446;28;20032;-59
2023/03/20 06:56:10;;;;;;;120.10;38.75;;;;;;;-145.01;100.00;64805.59;5078726;28;20028;-59
2023/03/20 06:58:36;;;;;;;117.47;38.10;;;;;;;-145.01;100.00;64805.59;5082816;28;20451;-59
2023/03/20 07:01:12;;;;;;;123.20;39.13;;;;;;;-145.01;100.00;64805.59;5080908;28;20058;-59
2023/03/20 07:03:38;;;;;;;129.65;40.20;;;;;;;-145.01;100.00;64805.59;5055784;28;20122;-60
2023/03/20 07:06:05;;;;;;;137.52;42.42;;;;;;;-145.01;100.00;64805.59;5083253;28;20099;-59
2023/03/20 07:08:31;;;;;;;135.93;41.10;;;;;;;-145.01;100.00;64805.59;5084074;28;20020;-59
2023/03/20 07:10:57;;;;;;;139.35;40.22;;;;;;;-145.01;100.00;64805.59;5076948;28;20024;-59
2023/03/20 07:13:23;;;;;;;127.95;40.00;;;;;;;-145.01;100.00;64805.59;5062774;28;20072;-59
2023/03/20 07:15:48;;;;;;;137.43;42.45;;;;;;;-145.01;100.00;64805.59;5078036;28;20043;-59
2023/03/20 07:18:13;;;;;;;132.65;41.40;;;;;;;-145.01;100.00;64805.59;5076390;28;20604;-59
2023/03/20 07:20:39;;;;;;;131.05;42.10;;;;;;;-145.01;100.00;64805.59;5071353;28;20085;-60
2023/03/20 07:23:04;;;;;;;111.28;39.65;;;;;;;-145.01;100.00;64805.59;5090167;28;20035;-59
2023/03/20 07:25:30;;;;;;;131.35;40.13;;;;;;;-145.01;100.00;64805.59;5083343;28;20020;-59
2023/03/20 07:27:55;;;;;;;115.03;39.78;;;;;;;-145.01;100.00;64805.59;5078012;28;20070;-60
2023/03/20 07:30:21;;;;;;;107.80;36.40;;;;;;;-145.01;100.00;64805.59;5082856;28;20024;-60
2023/03/20 07:32:47;;;;;;;98.60;34.08;;;;;;;-145.01;100.00;64805.59;5087331;28;20098;-59
2023/03/20 07:35:13;;;;;;;89.63;34.10;;;;;;;-145.01;100.00;64805.59;5080287;28;20434;-59
2023/03/20 07:37:38;;;;;;;82.40;32.22;;;;;;;-145.01;100.00;64805.59;5080310;28;20105;-59
2023/03/20 07:40:04;;;;;;;90.45;33.90;;;;;;;-145.01;100.00;64805.59;5079955;28;20478;-59
2023/03/20 07:42:30;;;;;;;94.38;34.20;;;;;;;-145.01;100.00;64805.59;5084300;28;20066;-60
2023/03/20 07:44:55;;;;;;;101.85;36.30;;;;;;;-145.01;100.00;64805.59;5081969;28;20036;-59
2023/03/20 07:47:21;;;;;;;87.28;32.47;;;;;;;-145.01;100.00;64805.59;5090656;28;20476;-59
2023/03/20 07:49:46;;;;;;;91.13;32.13;;;;;;;-145.01;100.00;64805.59;5094729;28;20035;-59
2023/03/20 07:52:12;;;;;;;90.50;33.15;;;;;;;-145.01;100.00;64805.59;5085076;28;20520;-58
2023/03/20 07:54:37;;;;;;;85.95;33.88;;;;;;;-145.01;100.00;64805.59;5063971;28;20044;-60
2023/03/20 07:57:04;;;;;;;85.72;32.95;;;;;;;-145.01;100.00;64805.59;5082998;28;20431;-59
2023/03/20 07:59:30;;;;;;;86.07;32.08;;;;;;;-145.01;100.00;64805.59;5088156;28;20024;-59
2023/03/20 08:01:55;;;;;;;84.05;32.95;;;;;;;-145.01;100.00;64805.59;5084360;28;20062;-59
2023/03/20 08:04:21;;;;;;;80.72;30.75;;;;;;;-145.01;100.00;64805.59;5093613;28;20034;-59
2023/03/20 08:06:47;;;;;;;72.85;30.08;;;;;;;-145.01;100.00;64805.59;5064084;28;20158;-59
2023/03/20 08:09:13;;;;;;;74.43;29.75;;;;;;;-145.01;100.00;64805.59;5089749;28;20496;-59
2023/03/20 08:11:38;;;;;;;65.68;25.10;;;;;;;-145.01;100.00;64805.59;5081974;28;20028;-59
2023/03/20 08:14:04;;;;;;;61.83;27.13;;;;;;;-145.01;100.00;64805.59;5081227;28;20049;-59
2023/03/20 08:16:29;;;;;;;51.92;22.60;;;;;;;-145.01;100.00;64805.59;5088778;28;20039;-61
2023/03/20 08:18:59;;;;;;;40.78;19.13;;;;;;;-145.01;100.00;64805.59;5093152;28;20520;-59
2023/03/20 08:21:25;;;;;;;;;;;;;;;-145.01;100.00;64805.59;5083802;28;20103;-59
2023/03/20 08:23:51;;;;;;;30.20;13.77;;;;;;;-145.01;100.00;64805.59;5086363;28;19920;-59
2023/03/20 08:26:17;;;;;;;29.92;13.77;;;;;;;-145.01;100.00;64805.59;5066656;28;20031;-59
2023/03/20 08:28:42;;;;;;;26.17;13.20;;;;;;;-145.01;100.00;64805.59;5077049;28;20025;-59
2023/03/20 08:31:08;;;;;;;22.02;10.35;;;;;;;-145.01;100.00;64805.59;5085670;28;20368;-59
2023/03/20 08:33:33;;;;;;;26.80;12.27;;;;;;;-145.01;100.00;64805.59;5080428;28;20062;-59
2023/03/20 08:35:59;;;;;;;23.23;11.13;;;;;;;-145.01;100.00;64805.59;5076681;28;20029;-59
2023/03/20 08:38:25;;;;;;;24.17;11.52;;;;;;;-145.01;100.00;64805.59;5086927;28;20466;-59
2023/03/20 08:40:50;;;;;;;27.55;11.93;;;;;;;-145.01;100.00;64805.59;5085496;28;20529;-59
2023/03/20 08:43:16;;;;;;;23.52;10.98;;;;;;;-145.01;100.00;64805.59;5078564;28;20549;-59
2023/03/20 08:45:41;;;;;;;21.40;11.35;;;;;;;-145.01;100.00;64805.59;5083301;28;20035;-60
2023/03/20 08:48:08;;;;;;;23.17;10.82;;;;;;;-145.01;100.00;64805.59;5077160;28;20222;-59
2023/03/20 08:50:33;;;;;;;18.33;10.68;;;;;;;-145.01;100.00;64805.59;5072222;28;20426;-59
2023/03/20 08:53:00;;;;;;;23.15;11.52;;;;;;;-145.01;100.00;64805.59;5072231;28;20035;-59
2023/03/20 08:55:25;;;;;;;139.68;83.38;;;;;;;-145.01;100.00;64805.59;5080835;28;20446;-59
2023/03/20 08:57:52;;;;;;;33.08;22.00;;;;;;;-145.01;100.00;64805.59;5084016;28;20040;-59
2023/03/20 09:00:19;;;;;;;42.35;29.77;;;;;;;-145.01;100.00;64805.59;5060860;28;20028;-59
2023/03/20 09:02:44;;;;;;;24.77;14.90;;;;;;;-145.01;100.00;64805.59;5080683;28;20103;-59
2023/03/20 09:05:10;;;;;;;32.22;17.15;;;;;;;-145.01;100.00;64805.59;5075421;28;20262;-59
2023/03/20 09:07:35;;;;;;;17.73;7.90;;;;;;;-145.01;100.00;64805.59;5078531;28;20028;-59
2023/03/20 09:10:01;;;;;;;24.80;12.40;;;;;;;-145.01;100.00;64805.59;5085318;28;20102;-59
2023/03/20 09:12:27;;;;;;;21.55;11.18;;;;;;;-145.01;100.00;64805.59;5078545;28;20027;-59
2023/03/20 09:14:52;;;;;;;45.00;27.00;;;;;;;-145.01;100.00;64805.59;5088601;28;20040;-59
2023/03/20 09:17:18;;;;;;;29.75;18.38;;;;;;;-145.01;100.00;64805.59;5078346;28;20588;-59
2023/03/20 09:19:44;;;;;;;24.70;13.88;;;;;;;-145.01;100.00;64805.59;5056927;28;20061;-59
2023/03/20 09:22:12;;;;;;;26.55;15.82;;;;;;;-145.01;100.00;64805.59;5076185;28;20043;-59
2023/03/20 09:24:38;;;;;;;15.45;10.93;;;;;;;-145.01;100.00;64805.59;5083536;28;20231;-59
2023/03/20 09:27:04;;;;;;;13.80;8.00;;;;;;;-145.01;100.00;64805.59;5087510;28;20035;-59
2023/03/20 09:29:29;;;;;;;26.25;14.73;;;;;;;-145.01;100.00;64805.59;5076363;28;20042;-59
2023/03/20 09:31:55;;;;;;;26.23;14.65;;;;;;;-145.01;100.00;64805.59;5075235;28;20109;-59
2023/03/20 09:34:20;;;;;;;23.73;13.30;;;;;;;-145.01;100.00;64805.59;5069076;28;20539;-59
2023/03/20 09:36:46;;;;;;;42.50;21.83;;;;;;;-145.01;100.00;64805.59;5076166;28;20024;-59
2023/03/20 09:39:11;;;;;;;23.55;14.02;;;;;;;-145.01;100.00;64805.59;5078191;28;20552;-59
2023/03/20 09:41:37;;;;;;;27.02;15.70;;;;;;;-145.01;100.00;64805.59;5071232;28;20537;-59
2023/03/20 09:44:11;;;;;;;15.35;10.82;;;;;;;-145.01;100.00;64805.59;5078097;28;20474;-59
2023/03/20 09:46:48;;;;;;;15.65;8.90;;;;;;;-145.01;100.00;64805.59;5061311;28;20051;-59
2023/03/20 09:49:29;;;;;;;23.98;14.57;;;;;;;-145.01;100.00;64805.59;5075191;28;20020;-59
2023/03/20 09:51:56;;;;;;;18.98;9.57;;;;;;;-145.01;100.00;64805.59;5077131;28;20042;-59
2023/03/20 09:54:27;;;;;;;21.83;10.85;;;;;;;-145.01;100.00;64805.59;5083625;28;20486;-59
2023/03/20 09:56:53;;;;;;;19.95;12.82;;;;;;;-145.01;100.00;64805.59;5057463;28;20024;-59
2023/03/20 09:59:19;;;;;;;14.02;6.93;;;;;;;-145.01;100.00;64805.59;5076958;28;20043;-59
2023/03/20 10:01:50;;;;;;;12.90;6.25;;;;;;;-145.01;100.00;64805.59;5057118;28;20426;-59
2023/03/20 10:04:15;;;;;;;15.75;9.40;;;;;;;-145.01;100.00;64805.59;5072851;28;20615;-59
2023/03/20 10:06:41;;;;;;;11.75;6.93;;;;;;;-145.01;100.00;64805.59;5075082;28;20024;-59
2023/03/20 10:09:20;;;;;;;13.30;7.22;;;;;;;-145.01;100.00;64805.59;5078275;28;20035;-59
2023/03/20 10:11:57;;;;;;;16.58;10.25;;;;;;;-145.01;100.00;64805.59;5063199;28;20046;-59
2023/03/20 10:14:42;;;;;;;14.23;9.55;;;;;;;-145.01;100.00;64805.59;5064512;28;20120;-59
2023/03/20 10:17:23;;;;;;;18.38;9.30;;;;;;;-145.01;100.00;64805.59;5049907;28;20091;-59
2023/03/20 10:19:52;;;;;;;9.88;6.85;;;;;;;-145.01;100.00;64805.59;5054975;28;20530;-59
2023/03/20 10:22:30;;;;;;;11.40;5.03;;;;;;;-145.01;100.00;64805.59;5056292;28;20036;-59
2023/03/20 10:25:32;;;;;;;10.40;5.30;;;;;;;-145.01;100.00;64805.59;5057060;28;20036;-59
2023/03/20 10:28:05;;;;;;;12.27;8.82;;;;;;;-145.01;100.00;64805.59;5055272;28;20036;-60
2023/03/20 10:31:01;;;;;;;8.05;5.25;;;;;;;-145.01;100.00;64805.59;5047430;28;20379;-59
2023/03/20 10:33:45;;;;;;;16.65;9.15;;;;;;;-145.01;100.00;64805.59;5056025;28;20118;-59
2023/03/20 10:36:37;;;;;;;13.32;8.02;;;;;;;-145.01;100.00;64805.59;5055404;28;20020;-59
2023/03/20 10:39:30;;;;;;;11.68;6.10;;;;;;;-145.01;100.00;64805.59;5053178;28;20036;-59
2023/03/20 10:41:57;;;;;;;8.20;4.03;;;;;;;-145.01;100.00;64805.59;5048225;28;20502;-59
2023/03/20 10:44:37;;;;;;;8.07;3.90;;;;;;;-145.01;100.00;64805.59;5057334;28;20785;-59
2023/03/20 10:47:04;;;;;;;9.68;4.72;;;;;;;-145.01;100.00;64805.59;5055578;28;20474;-59
2023/03/20 10:49:32;;;;;;;6.38;3.90;;;;;;;-145.01;100.00;64805.59;5056711;28;20409;-59
2023/03/20 10:51:59;;;;;;;7.47;3.60;;;;;;;-145.01;100.00;64805.59;5053800;28;20395;-60
2023/03/20 10:55:04;;;;;;;10.63;3.83;;;;;;;-145.01;100.00;64805.59;5045104;28;20060;-59
2023/03/20 10:57:32;;;;;;;11.40;4.40;;;;;;;-145.01;100.00;64805.59;5042084;28;20329;-59
2023/03/20 10:59:57;;;;;;;10.50;4.38;;;;;;;-145.01;100.00;64805.59;5052489;28;20295;-59